Shrewsbury, New Jersey
Current Conditions -  °F | °C
As of 7:35 PM on Friday 24 Oct 2014 (Local Time) from KBLM Reporting Station
Scattered Clouds Scattered Clouds  
Wind Chill: 57°   Ceiling: Unl
Heat Index: 57°   Visibility: 10mi
Dew Point: 46°   Wind: 5mph
Humidity: 67%   Direction: 120°ESE
Pressure: 29.81"   Gusts: NA
Location:  40.33°N, 74.06°W
Report Text: KBLM 242335Z AUTO 12004KT 10SM SCT055 14/08 A2981 RMK AO1
Loading
Personal Weather Stations






























Interactive Weather Map
Tropical Storm Tracking
New forecast layout! Learn more

10-Day Weather Forecast

Advertisements
Track Severe Weather on mobile